createdAt,value
2018-07-14T00:04:02.359Z,66.82
2018-07-14T00:08:46.949Z,67.05
2018-07-14T00:13:31.517Z,67.53
2018-07-14T00:18:15.159Z,68.03
2018-07-14T00:23:01.951Z,67.24
2018-07-14T00:27:45.582Z,69.27
2018-07-14T00:32:32.614Z,69.62
2018-07-14T00:37:16.018Z,68.19
2018-07-14T00:42:02.762Z,69.81
2018-07-14T00:46:46.318Z,68.29
2018-07-14T00:51:30.927Z,68.56
2018-07-14T00:56:14.605Z,69.16
2018-07-14T01:01:01.760Z,69.32
2018-07-14T01:05:45.264Z,69.50
2018-07-14T01:10:29.864Z,68.88
2018-07-14T01:15:13.449Z,70.55
2018-07-14T01:19:57.647Z,71.03
2018-07-14T01:24:41.059Z,71.88
2018-07-14T01:29:24.656Z,71.12
2018-07-14T01:34:12.000Z,71.53
2018-07-14T01:38:55.485Z,70.28
2018-07-14T01:43:40.081Z,70.65
2018-07-14T01:48:23.729Z,71.00
2018-07-14T01:53:08.281Z,71.41
2018-07-14T01:57:51.920Z,70.94
2018-07-14T02:02:43.931Z,71.65
2018-07-14T02:07:27.463Z,71.87
2018-07-14T02:12:12.108Z,72.41
2018-07-14T02:16:55.745Z,71.48
2018-07-14T02:21:43.031Z,71.36
2018-07-14T02:26:26.721Z,72.11
2018-07-14T02:31:11.479Z,70.97
2018-07-14T02:35:55.149Z,71.36
2018-07-14T02:40:39.755Z,71.12
2018-07-14T02:45:23.112Z,71.83
2018-07-14T02:50:06.894Z,71.82
2018-07-14T02:54:50.390Z,71.90
2018-07-14T02:59:33.962Z,72.62
2018-07-14T03:04:17.514Z,72.72
2018-07-14T03:09:01.164Z,73.92
2018-07-14T03:13:45.889Z,72.60
2018-07-14T03:18:29.541Z,73.43
2018-07-14T03:23:13.134Z,72.80
2018-07-14T03:27:56.768Z,73.30
2018-07-14T03:32:44.006Z,72.74
2018-07-14T03:37:27.705Z,72.52
2018-07-14T03:42:11.632Z,72.22
2018-07-14T03:46:55.225Z,73.26
2018-07-14T03:51:42.213Z,73.40
2018-07-14T03:56:25.732Z,73.25
2018-07-14T04:01:09.247Z,74.19
2018-07-14T04:05:52.730Z,73.89
2018-07-14T04:10:40.224Z,73.86
2018-07-14T04:15:23.842Z,73.84
2018-07-14T04:20:11.577Z,74.15
2018-07-14T04:24:55.139Z,73.73
2018-07-14T04:29:38.809Z,73.82
2018-07-14T04:34:22.385Z,73.60
2018-07-14T04:39:06.030Z,73.27
2018-07-14T04:43:49.828Z,73.98
2018-07-14T04:48:33.378Z,73.23
2018-07-14T04:53:17.152Z,73.98
2018-07-14T04:58:00.601Z,74.44
2018-07-14T05:02:44.431Z,73.39
2018-07-14T05:07:28.052Z,73.84
2018-07-14T05:12:15.047Z,73.37
2018-07-14T05:16:58.693Z,72.99
2018-07-14T05:21:42.381Z,73.04
2018-07-14T05:26:25.823Z,73.01
2018-07-14T05:31:12.773Z,72.82
2018-07-14T05:35:56.414Z,73.10
2018-07-14T05:40:43.834Z,71.37
2018-07-14T05:45:27.986Z,68.96
2018-07-14T05:50:11.708Z,68.91
2018-07-14T05:54:55.323Z,70.02
2018-07-14T05:59:39.031Z,70.36
2018-07-14T06:04:22.642Z,70.94
2018-07-14T06:09:08.750Z,70.51
2018-07-14T06:13:52.410Z,71.01
2018-07-14T06:18:36.023Z,69.93
2018-07-14T06:23:19.840Z,70.99
2018-07-14T06:28:04.420Z,70.14
2018-07-14T06:32:48.132Z,70.82
2018-07-14T06:37:31.675Z,69.16
2018-07-14T06:42:15.342Z,69.09
2018-07-14T06:46:59.841Z,69.28
2018-07-14T06:51:43.926Z,68.68
2018-07-14T06:56:28.876Z,68.00
2018-07-14T07:01:16.854Z,66.35
2018-07-14T07:06:01.261Z,66.68
2018-07-14T07:10:45.682Z,66.81
2018-07-14T07:15:29.716Z,65.52
2018-07-14T07:20:14.556Z,64.96
2018-07-14T07:24:58.773Z,65.79
2018-07-14T07:29:43.358Z,65.13
2018-07-14T07:34:30.315Z,65.36
2018-07-14T07:39:21.771Z,66.28
2018-07-14T07:44:06.602Z,62.55
2018-07-14T07:48:50.387Z,62.55
2018-07-14T07:53:33.879Z,62.20
2018-07-14T07:58:19.219Z,61.15
2018-07-14T08:03:03.132Z,63.36
2018-07-14T08:07:46.647Z,63.54
2018-07-14T08:12:31.459Z,63.30
2018-07-14T08:17:15.025Z,60.96
2018-07-14T08:21:58.602Z,61.30
2018-07-14T08:26:42.146Z,61.03
2018-07-14T08:31:26.777Z,59.17
2018-07-14T08:36:11.218Z,60.02
2018-07-14T08:40:55.879Z,60.91
2018-07-14T08:45:40.473Z,62.59
2018-07-14T08:50:26.521Z,61.80
2018-07-14T08:55:10.820Z,60.49
2018-07-14T08:59:55.563Z,61.13
2018-07-14T09:04:39.077Z,58.75
2018-07-14T09:09:22.656Z,57.42
2018-07-14T09:14:06.195Z,56.06
2018-07-14T09:18:55.729Z,54.91
2018-07-14T09:23:39.270Z,53.01
2018-07-14T09:28:23.016Z,53.93
2018-07-14T09:33:08.550Z,51.29
2018-07-14T09:37:52.145Z,51.22
2018-07-14T09:42:35.850Z,53.70
2018-07-14T09:47:19.417Z,53.61
2018-07-14T09:52:03.878Z,52.81
2018-07-14T09:56:47.399Z,53.83
2018-07-14T10:01:31.939Z,55.24
2018-07-14T10:06:15.426Z,56.17
2018-07-14T10:10:59.051Z,50.46
2018-07-14T10:15:42.447Z,49.09
2018-07-14T10:20:29.857Z,48.35
2018-07-14T10:25:13.466Z,50.49
2018-07-14T10:29:58.012Z,50.86
2018-07-14T10:34:41.513Z,49.67
2018-07-14T10:39:25.051Z,44.96
2018-07-14T10:44:08.929Z,42.12
2018-07-14T10:48:52.585Z,41.98
2018-07-14T10:53:36.213Z,42.79
2018-07-14T10:58:20.942Z,45.55
2018-07-14T11:03:04.547Z,42.31
2018-07-14T11:07:48.172Z,40.00
2018-07-14T11:12:32.609Z,41.27
2018-07-14T11:17:16.159Z,42.35
2018-07-14T11:22:01.412Z,44.41
2018-07-14T11:26:45.434Z,42.98
2018-07-14T11:31:38.109Z,43.52
2018-07-14T11:36:21.637Z,42.90
2018-07-14T11:41:05.638Z,41.68
2018-07-14T11:45:49.278Z,40.27
2018-07-14T11:50:32.996Z,41.54
2018-07-14T11:55:16.649Z,42.48
2018-07-14T12:00:03.340Z,40.63
2018-07-14T12:04:46.781Z,42.37
2018-07-14T12:09:30.843Z,43.65
2018-07-14T12:14:16.686Z,42.42
2018-07-14T12:19:00.532Z,41.80
2018-07-14T12:23:44.060Z,41.59
2018-07-14T12:28:38.162Z,39.97
2018-07-14T12:33:21.623Z,43.67
2018-07-14T12:38:05.314Z,42.42
2018-07-14T12:42:48.732Z,42.55
2018-07-14T12:47:32.589Z,44.58
2018-07-14T12:52:16.257Z,44.68
2018-07-14T12:56:59.926Z,43.39
2018-07-14T13:01:46.468Z,43.42
2018-07-14T13:06:30.237Z,42.88
2018-07-14T13:11:13.786Z,43.87
2018-07-14T13:15:57.354Z,41.18
2018-07-14T13:20:41.217Z,40.24
2018-07-14T13:25:24.758Z,42.87
2018-07-14T13:30:08.548Z,44.84
2018-07-14T13:34:52.025Z,44.88
2018-07-14T13:39:35.856Z,44.63
2018-07-14T13:44:19.333Z,44.57
2018-07-14T13:49:05.959Z,42.83
2018-07-14T13:53:49.522Z,45.18
2018-07-14T13:58:33.284Z,45.75
2018-07-14T14:03:16.788Z,46.44
2018-07-14T14:08:00.268Z,46.64
2018-07-14T14:12:43.787Z,44.40
2018-07-14T14:17:27.356Z,44.82
2018-07-14T14:22:12.023Z,45.59
2018-07-14T14:26:55.561Z,45.86
2018-07-14T14:31:39.352Z,45.03
2018-07-14T14:36:22.838Z,46.60
2018-07-14T14:41:06.614Z,45.14
2018-07-14T14:45:50.534Z,43.01
2018-07-14T14:50:35.191Z,43.51
2018-07-14T14:55:19.031Z,42.40
2018-07-14T15:00:02.744Z,41.82
2018-07-14T15:04:46.424Z,40.59
2018-07-14T15:09:30.136Z,41.34
2018-07-14T15:14:13.592Z,43.78
2018-07-14T15:18:57.063Z,48.87
2018-07-14T15:23:40.666Z,48.35
2018-07-14T15:28:24.462Z,50.94
2018-07-14T15:33:08.479Z,51.88
2018-07-14T15:37:54.364Z,47.29
2018-07-14T15:42:38.036Z,46.84
2018-07-14T15:47:21.612Z,46.34
2018-07-14T15:52:05.733Z,47.79
2018-07-14T15:56:49.266Z,46.97
2018-07-14T16:01:33.138Z,46.82
2018-07-14T16:06:16.754Z,46.96
2018-07-14T16:11:00.397Z,47.26
2018-07-14T16:15:44.067Z,48.75
2018-07-14T16:20:27.933Z,50.96
2018-07-14T16:25:11.542Z,50.27
2018-07-14T16:29:55.199Z,50.12
2018-07-14T16:34:38.757Z,49.23
2018-07-14T16:39:22.262Z,49.83
2018-07-14T16:44:05.906Z,50.29
2018-07-14T16:48:49.607Z,50.90
2018-07-14T16:53:33.113Z,51.79
2018-07-14T16:58:16.844Z,51.85
2018-07-14T17:03:00.929Z,52.78
2018-07-14T17:07:46.114Z,52.91
2018-07-14T17:12:29.755Z,51.84
2018-07-14T17:17:13.264Z,51.79
2018-07-14T17:22:00.068Z,53.30
2018-07-14T17:26:43.773Z,53.44
2018-07-14T17:31:28.346Z,55.62
2018-07-14T17:36:12.012Z,56.43
2018-07-14T17:40:56.941Z,56.54
2018-07-14T17:45:40.706Z,53.54
2018-07-14T17:50:27.816Z,55.39
2018-07-14T17:55:11.411Z,55.16
2018-07-14T17:59:55.462Z,55.59
2018-07-14T18:04:39.140Z,55.92
2018-07-14T18:09:26.939Z,55.95
2018-07-14T18:14:11.317Z,57.78
2018-07-14T18:18:55.145Z,57.85
2018-07-14T18:23:38.764Z,57.17
2018-07-14T18:28:26.274Z,57.34
2018-07-14T18:33:10.012Z,57.38
2018-07-14T18:37:53.776Z,58.39
2018-07-14T18:42:37.451Z,57.73
2018-07-14T18:47:24.646Z,57.15
2018-07-14T18:52:08.102Z,56.80
2018-07-14T18:56:51.501Z,58.12
2018-07-14T19:01:35.956Z,56.26
2018-07-14T19:06:19.515Z,56.01
2018-07-14T19:11:06.984Z,57.28
2018-07-14T19:15:50.607Z,55.86
2018-07-14T19:20:34.291Z,55.28
2018-07-14T19:25:18.891Z,56.38
2018-07-14T19:30:03.384Z,56.22
2018-07-14T19:34:47.017Z,55.64
2018-07-14T19:39:36.881Z,55.10
2018-07-14T19:44:20.508Z,55.70
2018-07-14T19:49:08.090Z,55.90
2018-07-14T19:53:51.719Z,55.55
2018-07-14T19:58:35.426Z,55.03
2018-07-14T20:03:19.044Z,54.60
2018-07-14T20:08:03.266Z,56.16
2018-07-14T20:12:46.777Z,55.03
2018-07-14T20:17:32.386Z,54.59
2018-07-14T20:22:16.043Z,54.70
2018-07-14T20:27:00.841Z,54.48
2018-07-14T20:31:44.615Z,55.24
2018-07-14T20:36:28.290Z,54.24
2018-07-14T20:41:15.614Z,55.04
2018-07-14T20:45:59.233Z,54.53
2018-07-14T20:50:43.922Z,55.03
2018-07-14T20:55:27.643Z,54.77
2018-07-14T21:00:12.818Z,56.67
2018-07-14T21:04:56.446Z,55.02
2018-07-14T21:09:40.360Z,54.78
2018-07-14T21:14:24.234Z,55.62
2018-07-14T21:19:07.890Z,55.76
2018-07-14T21:23:51.415Z,55.41
2018-07-14T21:28:38.965Z,55.93
2018-07-14T21:33:22.649Z,57.05
2018-07-14T21:38:10.018Z,56.67
2018-07-14T21:42:53.602Z,56.08
2018-07-14T21:47:38.206Z,57.52
2018-07-14T21:52:21.838Z,56.63
2018-07-14T21:57:06.573Z,56.50
2018-07-14T22:01:51.382Z,58.93
2018-07-14T22:06:34.903Z,56.88
2018-07-14T22:11:18.510Z,57.05
2018-07-14T22:16:02.126Z,56.89
2018-07-14T22:20:46.846Z,57.00
2018-07-14T22:25:30.498Z,58.80
2018-07-14T22:30:15.224Z,58.21
2018-07-14T22:34:58.829Z,58.41
2018-07-14T22:39:42.501Z,57.34
2018-07-14T22:44:26.128Z,59.53
2018-07-14T22:49:10.045Z,58.61
2018-07-14T22:53:53.590Z,59.84
2018-07-14T22:58:38.358Z,58.87
2018-07-14T23:03:22.683Z,59.68
2018-07-14T23:08:09.732Z,60.21
2018-07-14T23:12:53.261Z,59.36
2018-07-14T23:17:37.063Z,59.92
2018-07-14T23:22:20.675Z,59.94
2018-07-14T23:27:04.282Z,59.49
2018-07-14T23:31:47.818Z,60.12
2018-07-14T23:36:34.907Z,59.76
2018-07-14T23:41:18.395Z,61.58
2018-07-14T23:46:01.748Z,61.33
2018-07-14T23:50:45.238Z,61.24
2018-07-14T23:55:28.705Z,60.74
